Time;durP1;ratioP1;P1;durP2;ratioP2;P2;SDS_P1;SDS_P2;PMS_P1;PMS_P2;Temp;Humidity;BMP_temperature;BMP_pressure;BME280_temperature;BME280_humidity;BME280_pressure;Samples;Min_cycle;Max_cycle;Signal;HPM_P1;HPM_P2
2021/05/10 00:00:04;;;;;;;22.40;21.10;;;;;;;;;;5004003;28;20431;-81
2021/05/10 00:02:32;;;;;;;22.90;21.43;;;;;;;;;;4983386;28;20465;-81
2021/05/10 00:05:04;;;;;;;22.50;21.23;;;;;;;;;;4992407;28;20426;-80
2021/05/10 00:07:34;;;;;;;22.33;21.07;;;;;;;;;;5005945;28;20415;-82
2021/05/10 00:10:06;;;;;;;21.43;20.30;;;;;;;;;;5008221;28;20507;-80
2021/05/10 00:12:33;;;;;;;21.53;20.23;;;;;;;;;;5016281;28;20428;-81
2021/05/10 00:15:03;;;;;;;22.13;20.83;;;;;;;;;;5005121;28;20422;-81
2021/05/10 00:17:30;;;;;;;23.37;21.97;;;;;;;;;;5004149;28;20491;-81
2021/05/10 00:19:58;;;;;;;23.17;21.97;;;;;;;;;;5009555;28;20477;-81
2021/05/10 00:22:25;;;;;;;22.43;21.23;;;;;;;;;;4982564;28;20427;-81
2021/05/10 00:24:52;;;;;;;22.23;21.03;;;;;;;;;;5005703;28;20459;-81
2021/05/10 00:27:19;;;;;;;23.40;21.90;;;;;;;;;;5000305;28;20812;-82
2021/05/10 00:29:46;;;;;;;22.63;21.23;;;;;;;;;;4980116;28;20941;-81
2021/05/10 00:32:13;;;;;;;23.47;21.60;;;;;;;;;;4999053;28;20445;-81
2021/05/10 00:34:41;;;;;;;23.53;22.03;;;;;;;;;;4999352;28;20450;-82
2021/05/10 00:37:10;;;;;;;23.03;21.83;;;;;;;;;;5006007;28;20471;-81
2021/05/10 00:39:37;;;;;;;22.47;21.37;;;;;;;;;;5000620;28;20418;-80
2021/05/10 00:42:04;;;;;;;23.03;21.80;;;;;;;;;;4999497;28;20444;-82
2021/05/10 00:44:31;;;;;;;23.57;22.23;;;;;;;;;;4996537;28;20439;-81
2021/05/10 00:46:59;;;;;;;23.40;21.83;;;;;;;;;;4979952;28;20444;-81
2021/05/10 00:49:26;;;;;;;22.70;21.27;;;;;;;;;;4998720;28;20434;-81
2021/05/10 00:52:01;;;;;;;23.33;21.93;;;;;;;;;;5001315;28;20517;-80
2021/05/10 00:54:29;;;;;;;23.47;22.27;;;;;;;;;;4999348;28;20444;-81
2021/05/10 00:56:57;;;;;;;23.27;22.07;;;;;;;;;;5003030;28;20491;-81
2021/05/10 00:59:24;;;;;;;23.03;21.80;;;;;;;;;;4991795;28;20452;-82
2021/05/10 01:01:53;;;;;;;22.63;21.43;;;;;;;;;;5001795;28;20447;-82
2021/05/10 01:04:23;;;;;;;22.17;21.00;;;;;;;;;;5004091;28;20437;-81
2021/05/10 01:06:50;;;;;;;21.80;20.60;;;;;;;;;;5001035;28;20458;-82
2021/05/10 01:09:17;;;;;;;23.10;21.70;;;;;;;;;;5003318;28;20864;-82
2021/05/10 01:11:45;;;;;;;22.60;21.33;;;;;;;;;;5003306;28;20415;-83
2021/05/10 01:14:12;;;;;;;23.07;21.87;;;;;;;;;;5000685;28;20436;-80
2021/05/10 01:16:39;;;;;;;23.00;21.77;;;;;;;;;;5002479;28;20458;-80
2021/05/10 01:19:06;;;;;;;21.40;20.30;;;;;;;;;;5001122;28;20411;-81
2021/05/10 01:21:34;;;;;;;22.53;21.43;;;;;;;;;;5000656;28;20417;-81
2021/05/10 01:24:03;;;;;;;21.73;20.17;;;;;;;;;;5000959;28;20920;-81
2021/05/10 01:26:31;;;;;;;22.93;21.60;;;;;;;;;;4999301;28;20440;-81
2021/05/10 01:28:58;;;;;;;21.87;20.67;;;;;;;;;;4979501;28;20489;-81
2021/05/10 01:31:25;;;;;;;21.67;20.20;;;;;;;;;;4997168;28;20499;-81
2021/05/10 01:33:52;;;;;;;21.87;20.67;;;;;;;;;;4996677;28;20442;-81
2021/05/10 01:36:18;;;;;;;22.53;21.20;;;;;;;;;;4996435;28;20468;-81
2021/05/10 01:38:45;;;;;;;23.43;21.67;;;;;;;;;;4979496;28;20423;-81
2021/05/10 01:41:13;;;;;;;22.03;20.83;;;;;;;;;;4995144;28;20438;-81
2021/05/10 01:43:40;;;;;;;22.13;20.93;;;;;;;;;;4997153;28;20429;-81
2021/05/10 01:46:07;;;;;;;21.93;20.70;;;;;;;;;;4997319;28;20461;-81
2021/05/10 01:48:34;;;;;;;21.07;19.97;;;;;;;;;;4980241;28;20418;-81
2021/05/10 01:51:01;;;;;;;21.60;20.50;;;;;;;;;;4997253;28;20449;-81
2021/05/10 01:53:28;;;;;;;23.30;21.77;;;;;;;;;;4996598;28;20406;-81
2021/05/10 01:55:55;;;;;;;21.70;20.60;;;;;;;;;;4996003;28;20422;-81
2021/05/10 01:58:23;;;;;;;22.50;21.03;;;;;;;;;;4996835;28;20458;-81
2021/05/10 02:00:50;;;;;;;21.73;20.33;;;;;;;;;;4997510;28;20746;-81
2021/05/10 02:03:17;;;;;;;22.80;21.60;;;;;;;;;;4995908;28;20796;-81
2021/05/10 02:05:45;;;;;;;22.20;21.10;;;;;;;;;;4996975;28;20496;-81
2021/05/10 02:08:13;;;;;;;23.33;22.10;;;;;;;;;;4999810;28;20447;-81
2021/05/10 02:10:40;;;;;;;22.50;21.20;;;;;;;;;;5000518;28;20468;-81
2021/05/10 02:13:10;;;;;;;22.90;21.60;;;;;;;;;;5001813;28;20874;-80
2021/05/10 02:15:39;;;;;;;22.63;21.30;;;;;;;;;;5001845;28;20482;-80
2021/05/10 02:18:07;;;;;;;22.00;20.40;;;;;;;;;;5000371;28;20465;-80
2021/05/10 02:20:34;;;;;;;23.10;21.43;;;;;;;;;;5000924;28;20780;-80
2021/05/10 02:23:02;;;;;;;21.90;20.77;;;;;;;;;;5000591;28;20794;-80
2021/05/10 02:25:30;;;;;;;21.60;20.50;;;;;;;;;;5000744;28;20864;-80
2021/05/10 02:27:57;;;;;;;23.10;21.60;;;;;;;;;;5000139;28;20445;-79
2021/05/10 02:30:25;;;;;;;22.53;21.23;;;;;;;;;;5009750;28;20451;-80
2021/05/10 02:32:53;;;;;;;21.90;20.60;;;;;;;;;;5007179;28;20497;-80
2021/05/10 02:35:20;;;;;;;22.97;21.47;;;;;;;;;;5002256;28;20399;-80
2021/05/10 02:37:47;;;;;;;21.80;20.70;;;;;;;;;;5000430;28;20592;-80
2021/05/10 02:40:15;;;;;;;22.20;21.00;;;;;;;;;;4998255;28;20493;-80
2021/05/10 02:42:42;;;;;;;22.43;20.83;;;;;;;;;;4998654;28;20909;-80
2021/05/10 02:45:10;;;;;;;21.53;20.23;;;;;;;;;;4998571;28;20464;-80
2021/05/10 02:47:37;;;;;;;21.80;20.50;;;;;;;;;;4998869;28;20477;-81
2021/05/10 02:50:06;;;;;;;21.80;20.60;;;;;;;;;;5000465;28;20414;-80
2021/05/10 02:52:34;;;;;;;22.90;21.40;;;;;;;;;;4998450;28;20494;-80
2021/05/10 02:55:01;;;;;;;21.83;20.40;;;;;;;;;;4981320;28;20440;-80
2021/05/10 02:57:28;;;;;;;22.07;20.77;;;;;;;;;;4999193;28;20564;-81
2021/05/10 02:59:54;;;;;;;21.27;20.17;;;;;;;;;;4998340;28;20448;-81
2021/05/10 03:02:21;;;;;;;21.57;20.37;;;;;;;;;;4997783;28;20493;-80
2021/05/10 03:04:49;;;;;;;22.37;21.17;;;;;;;;;;4980362;28;20450;-81
2021/05/10 03:07:16;;;;;;;22.90;21.70;;;;;;;;;;4997969;28;20443;-80
2021/05/10 03:09:43;;;;;;;22.90;21.30;;;;;;;;;;4997495;28;20479;-80
2021/05/10 03:12:10;;;;;;;21.60;20.50;;;;;;;;;;4997525;28;20449;-79
2021/05/10 03:14:37;;;;;;;21.33;20.10;;;;;;;;;;4997679;28;20950;-80
2021/05/10 03:17:04;;;;;;;22.20;20.77;;;;;;;;;;4998289;28;20471;-80
2021/05/10 03:19:31;;;;;;;21.60;20.30;;;;;;;;;;4997763;28;20440;-80
2021/05/10 03:21:58;;;;;;;23.30;21.83;;;;;;;;;;4997534;28;20842;-80
2021/05/10 03:24:26;;;;;;;22.53;21.13;;;;;;;;;;4997313;28;20432;-81
2021/05/10 03:26:53;;;;;;;22.57;21.30;;;;;;;;;;4996873;28;20468;-80
2021/05/10 03:29:20;;;;;;;22.87;21.50;;;;;;;;;;5002544;28;20448;-81
2021/05/10 03:31:48;;;;;;;22.30;21.10;;;;;;;;;;5002571;28;20439;-81
2021/05/10 03:34:16;;;;;;;22.70;21.40;;;;;;;;;;5000625;28;20900;-80
2021/05/10 03:36:51;;;;;;;23.37;21.80;;;;;;;;;;5004740;28;20445;-81
2021/05/10 03:39:18;;;;;;;21.87;20.60;;;;;;;;;;5002975;28;20432;-81
2021/05/10 03:41:47;;;;;;;22.47;21.00;;;;;;;;;;5004002;28;20415;-81
2021/05/10 03:44:15;;;;;;;22.27;20.97;;;;;;;;;;4989135;28;20448;-80
2021/05/10 03:46:42;;;;;;;22.10;20.90;;;;;;;;;;5005549;28;20820;-81
2021/05/10 03:49:11;;;;;;;23.40;22.03;;;;;;;;;;5000020;28;20414;-81
2021/05/10 03:51:38;;;;;;;24.43;22.60;;;;;;;;;;5001459;28;20419;-81
2021/05/10 03:54:05;;;;;;;23.17;21.63;;;;;;;;;;5000834;28;20939;-81
2021/05/10 03:56:32;;;;;;;23.00;21.70;;;;;;;;;;4999509;28;20963;-82
2021/05/10 03:59:00;;;;;;;23.40;21.90;;;;;;;;;;5000664;28;20447;-82
2021/05/10 04:01:28;;;;;;;23.20;21.80;;;;;;;;;;4998363;28;20780;-81
2021/05/10 04:04:06;;;;;;;22.77;21.30;;;;;;;;;;5011255;28;20773;-81
2021/05/10 04:07:05;;;;;;;22.13;20.80;;;;;;;;;;4999697;28;20840;-81
2021/05/10 04:10:02;;;;;;;22.30;21.07;;;;;;;;;;4996761;28;20449;-81
2021/05/10 04:15:15;;;;;;;23.33;21.90;;;;;;;;;;4996454;28;20438;-82
2021/05/10 04:17:41;;;;;;;23.67;22.00;;;;;;;;;;4996271;28;20467;-82
2021/05/10 04:20:09;;;;;;;22.03;20.63;;;;;;;;;;4996605;28;20419;-82
2021/05/10 04:22:38;;;;;;;24.67;22.43;;;;;;;;;;4995932;28;20414;-82
2021/05/10 04:25:05;;;;;;;23.13;21.63;;;;;;;;;;4996241;28;20482;-81
2021/05/10 04:27:32;;;;;;;22.57;21.17;;;;;;;;;;4995816;28;20457;-79
2021/05/10 04:29:59;;;;;;;23.60;22.30;;;;;;;;;;4994850;28;20449;-80
2021/05/10 04:32:26;;;;;;;23.70;22.00;;;;;;;;;;4995587;28;20448;-80
2021/05/10 04:34:53;;;;;;;23.33;21.83;;;;;;;;;;4995725;28;20440;-83
2021/05/10 04:37:20;;;;;;;23.20;22.00;;;;;;;;;;4995805;28;20470;-83
2021/05/10 04:39:47;;;;;;;22.40;21.10;;;;;;;;;;5004562;28;20433;-82
2021/05/10 04:42:14;;;;;;;22.40;21.20;;;;;;;;;;4998577;28;20929;-80
2021/05/10 04:44:41;;;;;;;23.43;21.80;;;;;;;;;;4997322;28;20792;-80
2021/05/10 04:47:08;;;;;;;22.67;21.23;;;;;;;;;;4996400;28;20461;-80
2021/05/10 04:49:35;;;;;;;22.60;21.30;;;;;;;;;;4995613;28;20444;-80
2021/05/10 04:52:02;;;;;;;23.17;21.77;;;;;;;;;;4995324;28;20447;-80
2021/05/10 04:54:29;;;;;;;22.43;21.03;;;;;;;;;;4995201;28;20441;-80
2021/05/10 04:56:56;;;;;;;23.43;22.03;;;;;;;;;;4994940;28;20847;-80
2021/05/10 04:59:23;;;;;;;23.57;22.27;;;;;;;;;;4995257;28;20402;-80
2021/05/10 05:01:50;;;;;;;23.47;22.17;;;;;;;;;;4994921;28;20438;-79
2021/05/10 05:04:17;;;;;;;23.40;21.90;;;;;;;;;;4994813;28;20418;-79
2021/05/10 05:06:45;;;;;;;23.20;21.47;;;;;;;;;;4995261;28;20443;-80
2021/05/10 05:09:12;;;;;;;23.00;21.50;;;;;;;;;;4994738;28;20458;-79
2021/05/10 05:11:39;;;;;;;22.73;21.40;;;;;;;;;;4995294;28;20444;-80
2021/05/10 05:14:06;;;;;;;24.30;22.70;;;;;;;;;;4995254;28;20472;-80
2021/05/10 05:16:33;;;;;;;23.07;21.87;;;;;;;;;;4995227;28;20414;-80
2021/05/10 05:19:00;;;;;;;22.93;21.53;;;;;;;;;;4978516;28;20431;-80
2021/05/10 05:21:27;;;;;;;24.10;22.57;;;;;;;;;;4995435;28;20498;-79
2021/05/10 05:23:55;;;;;;;24.00;22.43;;;;;;;;;;4996243;28;20494;-79
2021/05/10 05:26:22;;;;;;;22.87;21.60;;;;;;;;;;4979005;28;20810;-79
2021/05/10 05:28:48;;;;;;;22.50;21.10;;;;;;;;;;4996875;28;20432;-78
2021/05/10 05:31:15;;;;;;;22.30;20.90;;;;;;;;;;4996595;28;20435;-78
2021/05/10 05:33:42;;;;;;;22.70;21.27;;;;;;;;;;5000628;28;20452;-78
2021/05/10 05:36:09;;;;;;;22.70;21.40;;;;;;;;;;4999845;28;20531;-79
2021/05/10 05:38:37;;;;;;;22.23;20.93;;;;;;;;;;4996076;28;20467;-79
2021/05/10 05:41:05;;;;;;;22.90;21.60;;;;;;;;;;4995288;28;20501;-79
2021/05/10 05:43:32;;;;;;;21.90;20.70;;;;;;;;;;4994659;28;20421;-78
2021/05/10 05:45:58;;;;;;;21.23;20.10;;;;;;;;;;4995838;28;20415;-78
2021/05/10 05:48:25;;;;;;;21.73;20.53;;;;;;;;;;4994631;28;20451;-79
2021/05/10 05:50:52;;;;;;;23.73;22.50;;;;;;;;;;4994615;28;20423;-79
2021/05/10 05:53:19;;;;;;;22.33;21.03;;;;;;;;;;4994882;28;20825;-79
2021/05/10 05:55:46;;;;;;;21.97;20.67;;;;;;;;;;4994185;28;20414;-80
2021/05/10 05:58:14;;;;;;;22.77;21.47;;;;;;;;;;4994066;28;20504;-79
2021/05/10 06:00:41;;;;;;;22.37;21.17;;;;;;;;;;4994668;28;20423;-79
2021/05/10 06:03:08;;;;;;;22.93;21.53;;;;;;;;;;4995341;28;20448;-78
2021/05/10 06:05:35;;;;;;;23.27;21.77;;;;;;;;;;4994465;28;20441;-79
2021/05/10 06:08:01;;;;;;;22.97;21.67;;;;;;;;;;4995148;28;20419;-79
2021/05/10 06:10:28;;;;;;;23.30;21.90;;;;;;;;;;4995435;28;20466;-79
2021/05/10 06:12:56;;;;;;;23.80;22.30;;;;;;;;;;4995510;28;20423;-79
2021/05/10 06:15:24;;;;;;;23.53;22.03;;;;;;;;;;4996272;28;20472;-79
2021/05/10 06:17:51;;;;;;;23.40;21.93;;;;;;;;;;4996141;28;20546;-79
2021/05/10 06:20:19;;;;;;;23.07;21.77;;;;;;;;;;4996214;28;20445;-79
2021/05/10 06:22:46;;;;;;;23.00;21.70;;;;;;;;;;4996653;28;20419;-79
2021/05/10 06:25:14;;;;;;;23.20;21.90;;;;;;;;;;4996510;28;20449;-79
2021/05/10 06:27:41;;;;;;;21.67;20.37;;;;;;;;;;4979869;28;20468;-79
2021/05/10 06:30:10;;;;;;;22.73;21.33;;;;;;;;;;4998184;28;20411;-79
2021/05/10 06:32:38;;;;;;;21.90;20.70;;;;;;;;;;4998208;28;20457;-79
2021/05/10 06:35:07;;;;;;;21.60;20.30;;;;;;;;;;4980712;28;20445;-79
2021/05/10 06:37:35;;;;;;;23.10;21.00;;;;;;;;;;4998553;28;20852;-80
2021/05/10 06:40:02;;;;;;;22.20;20.30;;;;;;;;;;4983030;28;20525;-79
2021/05/10 06:42:30;;;;;;;23.43;22.13;;;;;;;;;;5002718;28;20411;-79
2021/05/10 06:44:57;;;;;;;21.87;20.57;;;;;;;;;;4981915;28;20432;-79
2021/05/10 06:47:26;;;;;;;22.90;21.60;;;;;;;;;;4997779;28;20898;-76
2021/05/10 06:49:54;;;;;;;22.60;21.27;;;;;;;;;;4996973;28;20456;-77
2021/05/10 06:52:21;;;;;;;21.80;20.60;;;;;;;;;;4999196;28;20483;-76
2021/05/10 06:54:48;;;;;;;22.80;21.50;;;;;;;;;;5000447;28;20438;-77
2021/05/10 06:57:14;;;;;;;21.70;20.50;;;;;;;;;;4997906;28;20451;-77
2021/05/10 06:59:42;;;;;;;22.37;21.17;;;;;;;;;;5000642;28;20423;-77
2021/05/10 07:02:09;;;;;;;23.30;21.80;;;;;;;;;;5003016;28;20438;-77
2021/05/10 07:04:36;;;;;;;23.60;22.30;;;;;;;;;;5005745;28;20426;-77
2021/05/10 07:07:04;;;;;;;24.97;23.03;;;;;;;;;;5007425;28;20415;-77
2021/05/10 07:09:31;;;;;;;23.93;22.53;;;;;;;;;;5007250;28;20466;-78
2021/05/10 07:11:58;;;;;;;23.53;22.13;;;;;;;;;;5002616;28;20442;-78
2021/05/10 07:14:24;;;;;;;24.00;22.67;;;;;;;;;;5002651;28;20775;-78
2021/05/10 07:16:51;;;;;;;23.33;21.93;;;;;;;;;;5002069;28;20453;-78
2021/05/10 07:19:18;;;;;;;23.87;22.37;;;;;;;;;;5003478;28;20442;-78
2021/05/10 07:21:45;;;;;;;22.70;21.40;;;;;;;;;;5002566;28;20424;-79
2021/05/10 07:24:13;;;;;;;22.70;21.50;;;;;;;;;;4998214;28;20415;-78
2021/05/10 07:26:40;;;;;;;22.67;21.43;;;;;;;;;;4997969;28;20455;-77
2021/05/10 07:29:07;;;;;;;22.47;21.27;;;;;;;;;;4999644;28;20432;-78
2021/05/10 07:31:34;;;;;;;23.50;22.00;;;;;;;;;;4998631;28;20423;-77
2021/05/10 07:34:01;;;;;;;22.93;21.73;;;;;;;;;;5015071;28;20471;-78
2021/05/10 07:36:28;;;;;;;22.77;21.27;;;;;;;;;;5018091;28;20440;-78
2021/05/10 07:38:56;;;;;;;22.03;20.83;;;;;;;;;;5018258;28;20469;-78
2021/05/10 07:41:23;;;;;;;22.40;20.90;;;;;;;;;;5017650;28;20454;-83
2021/05/10 07:43:50;;;;;;;22.93;21.60;;;;;;;;;;5017669;28;20417;-79
2021/05/10 07:46:17;;;;;;;22.57;21.17;;;;;;;;;;4999934;28;20443;-79
2021/05/10 07:48:44;;;;;;;26.63;24.80;;;;;;;;;;5016688;28;20425;-79
2021/05/10 07:51:11;;;;;;;22.57;21.13;;;;;;;;;;5016511;28;20778;-79
2021/05/10 07:53:38;;;;;;;23.30;21.70;;;;;;;;;;5017647;28;20414;-79
2021/05/10 07:56:05;;;;;;;23.27;21.90;;;;;;;;;;5017838;28;20889;-79
2021/05/10 07:58:34;;;;;;;22.60;21.10;;;;;;;;;;5017458;28;20999;-79
2021/05/10 08:01:03;;;;;;;24.43;22.50;;;;;;;;;;5025235;28;20442;-78
2021/05/10 08:03:31;;;;;;;23.57;21.90;;;;;;;;;;5026352;28;20447;-79
2021/05/10 08:05:59;;;;;;;47.57;29.03;;;;;;;;;;5026924;28;20461;-79
2021/05/10 08:08:28;;;;;;;22.90;21.20;;;;;;;;;;5026300;28;20895;-79
2021/05/10 08:10:55;;;;;;;21.60;20.40;;;;;;;;;;5026275;28;20433;-78
2021/05/10 08:13:22;;;;;;;21.53;20.23;;;;;;;;;;5026676;28;20465;-80
2021/05/10 08:15:50;;;;;;;21.97;20.67;;;;;;;;;;5008457;28;20430;-79
2021/05/10 08:18:17;;;;;;;22.63;21.23;;;;;;;;;;5026187;28;20516;-79
2021/05/10 08:20:44;;;;;;;22.37;20.97;;;;;;;;;;5027336;28;20440;-78
2021/05/10 08:23:12;;;;;;;22.10;20.80;;;;;;;;;;5027345;28;20769;-78
2021/05/10 08:25:39;;;;;;;21.93;20.63;;;;;;;;;;5026106;28;20440;-78
2021/05/10 08:28:06;;;;;;;23.13;21.60;;;;;;;;;;5026740;28;20447;-79
2021/05/10 08:30:34;;;;;;;23.37;21.83;;;;;;;;;;5025842;28;20469;-78
2021/05/10 08:33:02;;;;;;;23.03;21.67;;;;;;;;;;5026263;28;20777;-78
2021/05/10 08:35:29;;;;;;;22.87;21.43;;;;;;;;;;5008367;28;20423;-79
2021/05/10 08:37:56;;;;;;;23.33;21.93;;;;;;;;;;5022209;28;20818;-79
2021/05/10 08:40:23;;;;;;;23.10;21.70;;;;;;;;;;5022671;28;20402;-79
2021/05/10 08:42:50;;;;;;;22.83;21.00;;;;;;;;;;5007264;28;20412;-78
2021/05/10 08:45:21;;;;;;;22.60;21.20;;;;;;;;;;5024556;28;20480;-79
2021/05/10 08:47:49;;;;;;;21.90;20.60;;;;;;;;;;5024705;28;20411;-79
2021/05/10 08:50:17;;;;;;;23.07;21.60;;;;;;;;;;5022269;28;20458;-78
2021/05/10 08:52:44;;;;;;;23.00;21.50;;;;;;;;;;5018448;28;20913;-78
2021/05/10 08:55:17;;;;;;;22.47;21.00;;;;;;;;;;5016988;28;20423;-79
2021/05/10 08:57:43;;;;;;;23.03;21.33;;;;;;;;;;5016418;28;20494;-79
2021/05/10 09:00:13;;;;;;;23.23;21.50;;;;;;;;;;5017126;28;20452;-78
2021/05/10 09:02:40;;;;;;;22.27;20.87;;;;;;;;;;5001050;28;20418;-81
2021/05/10 09:05:18;;;;;;;21.93;20.43;;;;;;;;;;5018838;28;20419;-82
2021/05/10 09:07:46;;;;;;;27.83;22.37;;;;;;;;;;5017179;28;20440;-81
2021/05/10 09:10:13;;;;;;;22.60;21.10;;;;;;;;;;4999599;28;20457;-82
2021/05/10 09:12:44;;;;;;;22.47;21.03;;;;;;;;;;5015519;28;20447;-81
2021/05/10 09:15:21;;;;;;;22.70;21.03;;;;;;;;;;5015123;28;20444;-82
2021/05/10 09:17:49;;;;;;;21.70;20.40;;;;;;;;;;5018317;28;20463;-82
2021/05/10 09:20:18;;;;;;;22.13;20.93;;;;;;;;;;5016593;28;20461;-82
2021/05/10 09:22:49;;;;;;;22.30;21.00;;;;;;;;;;4999914;28;20422;-82
2021/05/10 09:25:16;;;;;;;21.83;20.33;;;;;;;;;;5015413;28;20449;-82
2021/05/10 09:27:43;;;;;;;23.40;21.80;;;;;;;;;;5015383;28;20459;-85
2021/05/10 09:30:26;;;;;;;22.90;21.27;;;;;;;;;;5015439;28;20423;-83
2021/05/10 09:32:54;;;;;;;22.20;20.50;;;;;;;;;;5014965;28;20458;-85
2021/05/10 09:35:23;;;;;;;21.97;20.27;;;;;;;;;;5015105;28;20440;-85
2021/05/10 09:37:57;;;;;;;22.33;20.97;;;;;;;;;;4998390;28;20458;-86
2021/05/10 09:40:27;;;;;;;22.03;20.73;;;;;;;;;;5016122;28;20415;-91
2021/05/10 09:42:55;;;;;;;22.33;20.93;;;;;;;;;;5015589;28;20445;-90
2021/05/10 09:45:38;;;;;;;22.10;20.60;;;;;;;;;;5016167;28;20899;-87
2021/05/10 09:48:06;;;;;;;22.90;20.93;;;;;;;;;;5016014;28;20426;-90
2021/05/10 09:50:35;;;;;;;22.70;21.13;;;;;;;;;;5015426;28;20437;-87
2021/05/10 09:53:02;;;;;;;22.03;20.63;;;;;;;;;;5017492;28;20770;-82
2021/05/10 09:55:39;;;;;;;22.50;21.07;;;;;;;;;;5016469;28;20419;-82
2021/05/10 09:58:06;;;;;;;23.20;21.47;;;;;;;;;;4998964;28;20462;-82
2021/05/10 10:00:33;;;;;;;23.90;21.90;;;;;;;;;;5014896;28;20427;-82
2021/05/10 10:03:01;;;;;;;23.80;22.20;;;;;;;;;;5014386;28;20436;-82
2021/05/10 10:05:29;;;;;;;23.20;21.70;;;;;;;;;;5014903;28;20426;-82
2021/05/10 10:07:57;;;;;;;23.70;22.00;;;;;;;;;;5016723;28;20423;-82
2021/05/10 10:10:24;;;;;;;23.40;21.90;;;;;;;;;;5014322;28;20462;-84
2021/05/10 10:12:50;;;;;;;22.63;21.23;;;;;;;;;;5014365;28;20415;-82
2021/05/10 10:15:17;;;;;;;23.57;21.47;;;;;;;;;;5014630;28;20440;-83
2021/05/10 10:17:46;;;;;;;23.20;21.60;;;;;;;;;;5013936;28;20459;-82
2021/05/10 10:20:14;;;;;;;22.50;21.20;;;;;;;;;;5014174;28;20440;-83
2021/05/10 10:22:42;;;;;;;23.77;22.27;;;;;;;;;;5014065;28;20469;-87
2021/05/10 10:25:10;;;;;;;23.67;22.13;;;;;;;;;;5014290;28;20445;-83
2021/05/10 10:27:38;;;;;;;23.77;22.27;;;;;;;;;;5015512;28;20472;-83
2021/05/10 10:30:06;;;;;;;23.87;22.10;;;;;;;;;;5018734;28;20468;-83
2021/05/10 10:32:33;;;;;;;23.80;22.30;;;;;;;;;;5018855;28;20423;-82
2021/05/10 10:35:00;;;;;;;22.77;21.33;;;;;;;;;;5019034;28;20840;-83
2021/05/10 10:37:27;;;;;;;23.07;21.53;;;;;;;;;;5017801;28;20480;-83
2021/05/10 10:39:56;;;;;;;24.20;22.37;;;;;;;;;;4999908;28;20499;-82
2021/05/10 10:42:25;;;;;;;22.83;21.20;;;;;;;;;;5018035;28;20454;-83
2021/05/10 10:44:56;;;;;;;23.33;21.93;;;;;;;;;;5017710;28;20444;-82
2021/05/10 10:47:44;;;;;;;23.53;21.63;;;;;;;;;;5002076;28;20467;-83
2021/05/10 10:50:11;;;;;;;22.63;21.13;;;;;;;;;;5018854;28;20970;-82
2021/05/10 10:52:48;;;;;;;22.23;20.93;;;;;;;;;;5018406;28;20453;-83
2021/05/10 10:55:17;;;;;;;22.97;21.47;;;;;;;;;;5017389;28;20437;-82
2021/05/10 10:57:45;;;;;;;22.93;21.50;;;;;;;;;;5017575;28;20475;-83
2021/05/10 11:00:15;;;;;;;22.27;20.87;;;;;;;;;;5017451;28;20441;-82
2021/05/10 11:02:44;;;;;;;24.67;22.87;;;;;;;;;;5000005;28;20459;-83
2021/05/10 11:05:12;;;;;;;22.90;21.20;;;;;;;;;;5017467;28;20427;-83
2021/05/10 11:07:53;;;;;;;22.50;21.10;;;;;;;;;;5024462;28;20415;-82
2021/05/10 11:10:38;;;;;;;26.90;23.93;;;;;;;;;;5017859;28;20511;-81
2021/05/10 11:13:07;;;;;;;21.80;20.50;;;;;;;;;;5017245;28;20448;-82
2021/05/10 11:15:46;;;;;;;23.30;21.73;;;;;;;;;;5023995;28;20780;-82
2021/05/10 11:18:28;;;;;;;22.90;21.40;;;;;;;;;;5022000;28;20793;-83
2021/05/10 11:21:00;;;;;;;23.63;22.03;;;;;;;;;;5020172;28;20463;-82
2021/05/10 11:23:30;;;;;;;22.10;20.70;;;;;;;;;;5020243;28;20438;-82
2021/05/10 11:26:00;;;;;;;23.30;21.80;;;;;;;;;;5023866;28;20448;-81
2021/05/10 11:28:45;;;;;;;23.67;22.17;;;;;;;;;;5024915;28;20433;-82
2021/05/10 11:31:13;;;;;;;23.30;21.67;;;;;;;;;;5028323;28;20474;-81
2021/05/10 11:33:59;;;;;;;22.70;21.40;;;;;;;;;;5021166;28;20448;-81
2021/05/10 11:36:26;;;;;;;22.67;21.13;;;;;;;;;;5001201;28;20419;-82
2021/05/10 11:38:53;;;;;;;22.10;20.63;;;;;;;;;;4999720;28;20455;-83
2021/05/10 11:41:20;;;;;;;22.87;21.47;;;;;;;;;;5019305;28;20416;-84
2021/05/10 11:43:47;;;;;;;22.33;20.93;;;;;;;;;;5018386;28;20422;-84
2021/05/10 11:46:32;;;;;;;22.20;20.90;;;;;;;;;;5016815;28;20930;-84
2021/05/10 11:48:59;;;;;;;23.40;22.07;;;;;;;;;;5016545;28;20440;-86
2021/05/10 11:51:26;;;;;;;22.13;20.93;;;;;;;;;;5001010;28;20547;-80
2021/05/10 11:53:59;;;;;;;22.20;20.80;;;;;;;;;;5016715;28;20906;-80
2021/05/10 11:56:27;;;;;;;22.47;21.07;;;;;;;;;;5017237;28;20448;-79
2021/05/10 11:58:59;;;;;;;23.97;22.47;;;;;;;;;;5017689;28;20481;-80
2021/05/10 12:01:33;;;;;;;23.80;22.30;;;;;;;;;;5000212;28;20415;-80
2021/05/10 12:04:00;;;;;;;22.33;21.03;;;;;;;;;;5017674;28;20439;-80
2021/05/10 12:06:33;;;;;;;23.30;21.80;;;;;;;;;;5016927;28;20437;-80
2021/05/10 12:09:01;;;;;;;22.90;21.60;;;;;;;;;;5015901;28;20465;-79
2021/05/10 12:11:29;;;;;;;22.33;21.13;;;;;;;;;;5016695;28;20444;-80
2021/05/10 12:13:55;;;;;;;22.87;21.57;;;;;;;;;;5018134;28;20422;-80
2021/05/10 12:16:22;;;;;;;22.77;21.47;;;;;;;;;;5015241;28;20433;-80
2021/05/10 12:18:57;;;;;;;23.73;22.43;;;;;;;;;;5017947;28;20476;-80
2021/05/10 12:21:24;;;;;;;23.20;21.80;;;;;;;;;;5016549;28;20425;-79
2021/05/10 12:23:51;;;;;;;23.07;21.77;;;;;;;;;;5015819;28;20536;-80
2021/05/10 12:26:18;;;;;;;23.33;22.03;;;;;;;;;;5016906;28;20476;-80
2021/05/10 12:28:45;;;;;;;22.50;21.10;;;;;;;;;;5018678;28;20968;-80
2021/05/10 12:31:12;;;;;;;23.10;21.80;;;;;;;;;;5020615;28;20487;-80
2021/05/10 12:33:41;;;;;;;22.67;21.33;;;;;;;;;;5016132;28;20796;-80
2021/05/10 12:36:08;;;;;;;22.63;21.43;;;;;;;;;;5019274;28;20505;-80
2021/05/10 12:38:37;;;;;;;28.73;26.37;;;;;;;;;;5023068;28;20454;-80
2021/05/10 12:41:05;;;;;;;46.43;41.87;;;;;;;;;;5018545;28;20455;-80
2021/05/10 12:43:33;;;;;;;30.63;28.50;;;;;;;;;;5019830;28;20436;-80
2021/05/10 12:46:02;;;;;;;23.00;21.70;;;;;;;;;;5016964;28;20519;-81
2021/05/10 12:48:30;;;;;;;22.80;21.40;;;;;;;;;;5015487;28;20439;-80
2021/05/10 12:50:57;;;;;;;23.40;22.00;;;;;;;;;;5014519;28;20426;-80
2021/05/10 12:53:32;;;;;;;23.23;21.63;;;;;;;;;;4998657;28;20446;-80
2021/05/10 12:56:00;;;;;;;21.53;20.33;;;;;;;;;;5015214;28;20530;-79
2021/05/10 12:58:27;;;;;;;22.53;21.03;;;;;;;;;;5014748;28;20892;-80
2021/05/10 13:00:55;;;;;;;24.37;22.70;;;;;;;;;;5015186;28;20411;-80
2021/05/10 13:03:29;;;;;;;22.97;21.73;;;;;;;;;;5015038;28;20434;-79
2021/05/10 13:05:56;;;;;;;22.60;21.40;;;;;;;;;;5014860;28;20437;-79
2021/05/10 13:08:47;;;;;;;24.50;23.10;;;;;;;;;;5015231;28;20441;-79
2021/05/10 13:11:17;;;;;;;24.27;22.67;;;;;;;;;;5018083;28;20419;-79
2021/05/10 13:14:06;;;;;;;26.93;25.23;;;;;;;;;;5019383;28;20463;-80
2021/05/10 13:16:52;;;;;;;24.87;23.03;;;;;;;;;;5016862;28;20497;-80
2021/05/10 13:19:39;;;;;;;24.13;22.60;;;;;;;;;;4983530;28;20462;-80
2021/05/10 13:22:34;;;;;;;24.20;22.90;;;;;;;;;;5015348;28;20464;-80
2021/05/10 13:31:16;;;;;;;23.70;22.03;;;;;;;;;;5018339;28;20402;-78
2021/05/10 13:33:47;;;;;;;23.27;21.77;;;;;;;;;;5015668;28;20418;-81
2021/05/10 13:36:29;;;;;;;23.47;22.07;;;;;;;;;;5015037;28;20448;-78
2021/05/10 13:38:57;;;;;;;23.47;21.97;;;;;;;;;;5016111;28;20572;-79
2021/05/10 13:41:26;;;;;;;22.40;21.10;;;;;;;;;;5014979;28;20445;-79
2021/05/10 13:44:03;;;;;;;22.20;20.67;;;;;;;;;;5014766;28;20423;-79
2021/05/10 13:46:30;;;;;;;21.33;20.13;;;;;;;;;;5013711;28;20796;-78
2021/05/10 13:48:58;;;;;;;21.47;20.07;;;;;;;;;;5014810;28;20411;-79
2021/05/10 13:51:25;;;;;;;21.67;20.47;;;;;;;;;;5014603;28;20419;-79
2021/05/10 13:53:52;;;;;;;23.40;22.00;;;;;;;;;;5014121;28;20447;-79
2021/05/10 13:56:19;;;;;;;23.70;22.10;;;;;;;;;;5014322;28;20755;-79
2021/05/10 13:58:47;;;;;;;21.80;20.60;;;;;;;;;;5014036;28;20488;-77
2021/05/10 14:01:15;;;;;;;22.13;20.93;;;;;;;;;;5013743;28;20432;-78
2021/05/10 14:03:42;;;;;;;22.30;21.00;;;;;;;;;;5016670;28;20457;-78
2021/05/10 14:06:09;;;;;;;21.90;20.60;;;;;;;;;;5017869;28;20893;-78
2021/05/10 14:08:36;;;;;;;22.00;20.70;;;;;;;;;;5000560;28;20792;-78
2021/05/10 14:11:03;;;;;;;21.80;20.50;;;;;;;;;;5016808;28;20415;-77
2021/05/10 14:13:31;;;;;;;21.90;20.40;;;;;;;;;;5017525;28;20452;-78
2021/05/10 14:15:59;;;;;;;21.87;20.57;;;;;;;;;;5017696;28;20464;-78
2021/05/10 14:18:27;;;;;;;21.70;20.33;;;;;;;;;;5017315;28;20856;-79
2021/05/10 14:23:39;;;;;;;22.27;20.93;;;;;;;;;;5018221;28;20477;-80
2021/05/10 14:26:07;;;;;;;22.30;21.00;;;;;;;;;;5021842;28;20588;-81
2021/05/10 14:28:37;;;;;;;22.17;20.90;;;;;;;;;;5025207;28;20419;-81
2021/05/10 14:31:05;;;;;;;22.43;21.10;;;;;;;;;;5017981;28;20494;-82
2021/05/10 14:33:32;;;;;;;21.93;20.63;;;;;;;;;;4984198;28;20862;-82
2021/05/10 14:35:59;;;;;;;21.93;20.53;;;;;;;;;;5017467;28;20877;-82